createdAt,value
2023-02-28T00:01:35.901Z,2.17
2023-02-28T00:04:04.281Z,2.30
2023-02-28T00:06:33.717Z,2.17
2023-02-28T00:09:02.168Z,2.40
2023-02-28T00:11:30.853Z,2.65
2023-02-28T00:13:59.762Z,2.42
2023-02-28T00:16:29.088Z,2.42
2023-02-28T00:18:57.771Z,2.22
2023-02-28T00:21:27.771Z,2.13
2023-02-28T00:23:56.471Z,2.50
2023-02-28T00:26:25.017Z,2.40
2023-02-28T00:28:53.999Z,2.08
2023-02-28T00:31:23.075Z,2.30
2023-02-28T00:33:53.286Z,2.53
2023-02-28T00:36:22.831Z,2.25
2023-02-28T00:38:51.493Z,2.50
2023-02-28T00:41:19.901Z,2.47
2023-02-28T00:43:49.080Z,2.42
2023-02-28T00:48:48.802Z,2.30
2023-02-28T00:51:16.675Z,2.55
2023-02-28T00:53:45.436Z,2.47
2023-02-28T00:56:14.823Z,2.47
2023-02-28T00:58:43.153Z,2.30
2023-02-28T01:01:11.709Z,1.98
2023-02-28T01:03:40.254Z,2.40
2023-02-28T01:06:08.457Z,2.42
2023-02-28T01:08:36.611Z,2.45
2023-02-28T01:11:13.551Z,2.30
2023-02-28T01:13:44.129Z,2.33
2023-02-28T01:16:15.031Z,2.30
2023-02-28T01:18:43.693Z,2.30
2023-02-28T01:21:18.100Z,2.60
2023-02-28T01:23:47.539Z,2.40
2023-02-28T01:26:23.286Z,2.28
2023-02-28T01:28:53.495Z,2.45
2023-02-28T01:31:23.004Z,2.47
2023-02-28T01:33:51.843Z,2.38
2023-02-28T01:36:24.744Z,2.60
2023-02-28T01:38:54.202Z,2.70
2023-02-28T01:41:30.764Z,2.60
2023-02-28T01:44:07.973Z,2.50
2023-02-28T01:46:37.692Z,2.70
2023-02-28T01:49:18.450Z,2.60
2023-02-28T01:51:55.788Z,1.88
2023-02-28T01:54:36.574Z,2.42
2023-02-28T01:57:18.048Z,2.60
2023-02-28T02:00:10.297Z,2.55
2023-02-28T02:02:47.718Z,2.78
2023-02-28T02:05:32.354Z,2.50
2023-02-28T02:08:13.363Z,2.85
2023-02-28T02:10:51.254Z,2.17
2023-02-28T02:13:56.629Z,2.70
2023-02-28T02:16:44.952Z,2.55
2023-02-28T02:19:55.895Z,3.22
2023-02-28T02:22:46.163Z,2.80
2023-02-28T02:25:46.409Z,2.50
2023-02-28T02:28:35.314Z,2.83
2023-02-28T02:31:36.578Z,2.90
2023-02-28T02:34:40.468Z,2.70
2023-02-28T02:37:17.915Z,3.03
2023-02-28T02:39:52.887Z,2.90
2023-02-28T02:42:31.133Z,2.88
2023-02-28T02:45:23.842Z,3.15
2023-02-28T02:47:52.894Z,2.83
2023-02-28T02:50:28.905Z,2.90
2023-02-28T02:53:04.538Z,3.05
2023-02-28T02:55:40.022Z,2.85
2023-02-28T02:58:20.567Z,3.00
2023-02-28T03:00:55.061Z,3.20
2023-02-28T03:03:35.715Z,3.20
2023-02-28T03:06:06.976Z,3.00
2023-02-28T03:08:38.985Z,3.05
2023-02-28T03:11:16.343Z,2.85
2023-02-28T03:13:51.432Z,3.55
2023-02-28T03:16:42.806Z,5.10
2023-02-28T03:19:34.115Z,4.07
2023-02-28T03:22:34.584Z,3.65
2023-02-28T03:25:26.583Z,3.40
2023-02-28T03:28:28.176Z,3.35
2023-02-28T03:31:10.313Z,3.40
2023-02-28T03:34:19.840Z,3.50
2023-02-28T03:37:16.400Z,3.30
2023-02-28T03:40:02.194Z,3.53
2023-02-28T03:42:36.608Z,3.38
2023-02-28T03:45:13.995Z,3.20
2023-02-28T03:47:50.209Z,3.40
2023-02-28T03:50:40.665Z,3.25
2023-02-28T03:53:20.721Z,3.53
2023-02-28T03:56:07.377Z,3.60
2023-02-28T03:59:07.936Z,3.20
2023-02-28T04:01:45.942Z,3.17
2023-02-28T04:04:15.473Z,3.50
2023-02-28T04:06:46.400Z,2.43
2023-02-28T04:09:16.280Z,3.60
2023-02-28T04:11:50.648Z,3.10
2023-02-28T04:14:19.932Z,3.50
2023-02-28T04:16:48.657Z,3.88
2023-02-28T04:19:18.125Z,3.78
2023-02-28T04:21:52.554Z,3.40
2023-02-28T04:24:25.757Z,3.70
2023-02-28T04:26:57.423Z,3.53
2023-02-28T04:29:33.174Z,3.85
2023-02-28T04:32:03.598Z,3.60
2023-02-28T04:34:33.940Z,2.63
2023-02-28T04:37:12.770Z,3.55
2023-02-28T04:39:42.881Z,3.97
2023-02-28T04:42:12.252Z,3.72
2023-02-28T04:44:42.057Z,3.92
2023-02-28T04:47:10.138Z,3.80
2023-02-28T04:49:39.255Z,4.03
2023-02-28T04:52:08.637Z,4.15
2023-02-28T04:54:36.776Z,3.95
2023-02-28T04:57:05.575Z,4.38
2023-02-28T04:59:34.163Z,4.22
2023-02-28T05:02:08.305Z,4.47
2023-02-28T05:04:37.902Z,4.60
2023-02-28T05:07:06.371Z,4.25
2023-02-28T05:09:34.677Z,4.60
2023-02-28T05:12:04.510Z,4.18
2023-02-28T05:14:33.577Z,4.85
2023-02-28T05:17:04.453Z,4.75
2023-02-28T05:19:33.013Z,6.50
2023-02-28T05:22:01.511Z,6.43
2023-02-28T05:24:29.997Z,5.50
2023-02-28T05:26:58.649Z,5.60
2023-02-28T05:29:27.892Z,5.43
2023-02-28T05:31:56.406Z,6.10
2023-02-28T05:34:24.694Z,5.72
2023-02-28T05:36:53.933Z,5.60
2023-02-28T05:39:24.100Z,5.40
2023-02-28T05:41:53.224Z,5.05
2023-02-28T05:44:21.359Z,8.00
2023-02-28T05:46:49.362Z,5.75
2023-02-28T05:49:18.987Z,6.18
2023-02-28T05:51:47.604Z,15.27
2023-02-28T05:54:16.585Z,15.45
2023-02-28T05:56:47.736Z,7.13
2023-02-28T05:59:17.122Z,5.90
2023-02-28T06:01:49.567Z,5.60
2023-02-28T06:04:31.465Z,5.18
2023-02-28T06:07:01.321Z,4.65
2023-02-28T06:09:30.257Z,5.40
2023-02-28T06:12:04.810Z,5.22
2023-02-28T06:14:34.966Z,4.70
2023-02-28T06:17:07.871Z,4.60
2023-02-28T06:19:40.106Z,4.95
2023-02-28T06:22:09.999Z,4.93
2023-02-28T06:24:38.182Z,4.47
2023-02-28T06:27:06.703Z,4.80
2023-02-28T06:29:40.906Z,4.57
2023-02-28T06:32:09.806Z,5.25
2023-02-28T06:34:38.498Z,4.85
2023-02-28T06:37:07.121Z,4.53
2023-02-28T06:39:37.479Z,4.82
2023-02-28T06:42:06.385Z,4.75
2023-02-28T06:44:41.481Z,5.28
2023-02-28T06:47:10.730Z,4.57
2023-02-28T06:52:13.729Z,4.38
2023-02-28T06:54:43.677Z,5.07
2023-02-28T06:57:12.208Z,4.80
2023-02-28T06:59:41.057Z,4.93
2023-02-28T07:02:12.761Z,4.80
2023-02-28T07:04:45.955Z,3.70
2023-02-28T07:07:16.079Z,5.10
2023-02-28T07:09:45.092Z,5.10
2023-02-28T07:12:16.432Z,5.07
2023-02-28T07:14:44.586Z,4.47
2023-02-28T07:17:13.474Z,5.63
2023-02-28T07:19:41.536Z,5.15
2023-02-28T07:22:09.792Z,5.47
2023-02-28T07:24:42.016Z,5.40
2023-02-28T07:27:10.178Z,5.60
2023-02-28T07:29:39.636Z,5.22
2023-02-28T07:32:07.944Z,5.32
2023-02-28T07:34:36.674Z,5.22
2023-02-28T07:37:06.231Z,5.10
2023-02-28T07:39:34.376Z,4.82
2023-02-28T07:42:12.860Z,3.67
2023-02-28T07:44:41.929Z,5.10
2023-02-28T07:47:13.033Z,4.85
2023-02-28T07:49:41.420Z,5.53
2023-02-28T07:52:12.263Z,5.18
2023-02-28T07:54:40.674Z,5.13
2023-02-28T07:57:09.585Z,4.97
2023-02-28T07:59:40.072Z,5.45
2023-02-28T08:02:13.634Z,5.47
2023-02-28T08:04:44.515Z,4.85
2023-02-28T08:07:15.194Z,5.85
2023-02-28T08:09:44.464Z,3.70
2023-02-28T08:12:14.778Z,5.57
2023-02-28T08:14:45.742Z,5.22
2023-02-28T08:17:15.873Z,5.82
2023-02-28T08:19:47.156Z,6.35
2023-02-28T08:22:15.646Z,5.78
2023-02-28T08:24:45.445Z,6.05
2023-02-28T08:27:14.547Z,5.85
2023-02-28T08:29:45.945Z,5.60
2023-02-28T08:34:59.663Z,5.57
2023-02-28T08:37:28.167Z,5.38
2023-02-28T08:39:57.008Z,5.50
2023-02-28T08:42:26.176Z,5.88
2023-02-28T08:44:56.544Z,6.15
2023-02-28T08:47:25.420Z,5.88
2023-02-28T08:49:55.535Z,5.68
2023-02-28T08:52:24.891Z,6.38
2023-02-28T08:54:55.479Z,5.93
2023-02-28T08:57:23.776Z,5.80
2023-02-28T09:00:16.326Z,5.72
2023-02-28T09:02:46.216Z,6.22
2023-02-28T09:05:35.860Z,5.88
2023-02-28T09:08:04.862Z,6.63
2023-02-28T09:10:33.097Z,6.00
2023-02-28T09:13:03.673Z,6.72
2023-02-28T09:15:32.964Z,6.53
2023-02-28T09:18:01.173Z,7.18
2023-02-28T09:20:30.044Z,6.57
2023-02-28T09:22:58.378Z,6.15
2023-02-28T09:25:26.985Z,5.65
2023-02-28T09:27:56.035Z,6.22
2023-02-28T09:30:24.714Z,6.57
2023-02-28T09:32:55.421Z,7.22
2023-02-28T09:35:26.140Z,8.30
2023-02-28T09:37:59.981Z,8.05
2023-02-28T09:40:34.124Z,6.90
2023-02-28T09:43:07.508Z,6.22
2023-02-28T09:45:43.768Z,6.30
2023-02-28T09:48:19.708Z,6.22
2023-02-28T09:50:52.662Z,6.47
2023-02-28T09:54:01.377Z,6.80
2023-02-28T09:56:42.844Z,5.93
2023-02-28T09:59:37.898Z,6.50
2023-02-28T10:02:50.612Z,6.35
2023-02-28T10:05:32.857Z,5.70
2023-02-28T10:08:40.389Z,6.00
2023-02-28T10:11:57.188Z,6.20
2023-02-28T10:14:49.600Z,6.35
2023-02-28T10:17:55.013Z,6.10
2023-02-28T10:20:36.949Z,6.20
2023-02-28T10:23:29.104Z,6.03
2023-02-28T10:26:13.095Z,6.82
2023-02-28T10:28:42.172Z,6.95
2023-02-28T10:31:26.394Z,6.95
2023-02-28T10:33:56.665Z,6.97
2023-02-28T10:36:31.466Z,8.13
2023-02-28T10:39:26.031Z,7.03
2023-02-28T10:42:07.387Z,6.35
2023-02-28T10:44:38.626Z,6.38
2023-02-28T10:47:20.044Z,6.68
2023-02-28T10:52:55.409Z,7.00
2023-02-28T10:55:34.711Z,7.32
2023-02-28T10:58:48.989Z,6.72
2023-02-28T11:01:23.279Z,6.68
2023-02-28T11:07:37.343Z,7.47
2023-02-28T11:12:57.653Z,7.18
2023-02-28T11:16:21.880Z,7.13
2023-02-28T11:19:03.037Z,7.38
2023-02-28T11:21:41.479Z,7.30
2023-02-28T11:24:48.189Z,7.88
2023-02-28T11:27:30.812Z,7.15
2023-02-28T11:30:00.985Z,8.88
2023-02-28T11:32:32.638Z,8.57
2023-02-28T11:35:23.505Z,8.40
2023-02-28T11:37:53.055Z,12.27
2023-02-28T11:41:03.769Z,8.10
2023-02-28T11:44:12.555Z,7.13
2023-02-28T11:46:58.648Z,7.22
2023-02-28T11:49:52.851Z,7.55
2023-02-28T11:52:53.030Z,7.03
2023-02-28T11:55:27.703Z,7.07
2023-02-28T11:58:28.282Z,7.03
2023-02-28T12:01:10.398Z,6.65
2023-02-28T12:04:22.738Z,8.00
2023-02-28T12:07:22.472Z,6.90
2023-02-28T12:10:30.394Z,6.97
2023-02-28T12:13:21.456Z,7.00
2023-02-28T12:16:29.226Z,7.40
2023-02-28T12:19:15.330Z,7.13
2023-02-28T12:22:23.046Z,7.00
2023-02-28T12:25:09.065Z,6.85
2023-02-28T12:27:47.287Z,6.45
2023-02-28T12:30:29.013Z,6.97
2023-02-28T12:33:15.574Z,7.30
2023-02-28T12:36:02.257Z,7.35
2023-02-28T12:39:00.332Z,6.70
2023-02-28T12:42:01.175Z,7.85
2023-02-28T12:44:40.975Z,6.75
2023-02-28T12:47:18.238Z,7.07
2023-02-28T12:50:17.843Z,7.60
2023-02-28T12:53:29.854Z,7.57
2023-02-28T12:56:36.871Z,8.38
2023-02-28T12:59:49.197Z,8.18
2023-02-28T13:02:26.357Z,8.00
2023-02-28T13:05:09.885Z,8.27
2023-02-28T13:08:39.128Z,7.63
2023-02-28T13:11:20.956Z,7.35
2023-02-28T13:14:21.258Z,7.55
2023-02-28T13:17:12.712Z,7.97
2023-02-28T13:20:16.325Z,7.00
2023-02-28T13:22:52.608Z,7.15
2023-02-28T13:25:42.875Z,7.80
2023-02-28T13:28:15.990Z,7.57
2023-02-28T13:30:54.303Z,7.03
2023-02-28T13:33:31.453Z,7.50
2023-02-28T13:36:15.512Z,7.47
2023-02-28T13:38:53.135Z,7.22
2023-02-28T13:41:43.227Z,7.18
2023-02-28T13:44:16.551Z,7.40
2023-02-28T13:46:52.042Z,7.57
2023-02-28T13:49:27.594Z,7.85
2023-02-28T13:52:08.786Z,7.82
2023-02-28T13:55:20.889Z,8.57
2023-02-28T13:58:16.673Z,7.57
2023-02-28T14:01:13.189Z,7.95
2023-02-28T14:03:42.043Z,7.82
2023-02-28T14:06:36.188Z,8.05
2023-02-28T14:09:41.341Z,8.02
2023-02-28T14:12:53.521Z,7.82
2023-02-28T14:15:40.372Z,7.90
2023-02-28T14:18:41.477Z,8.27
2023-02-28T14:21:30.570Z,8.10
2023-02-28T14:24:33.222Z,11.35
2023-02-28T14:27:42.554Z,8.13
2023-02-28T14:31:06.066Z,8.02
2023-02-28T14:33:47.058Z,7.38
2023-02-28T14:36:40.079Z,8.48
2023-02-28T14:39:23.937Z,7.18
2023-02-28T14:41:56.781Z,8.40
2023-02-28T14:44:28.615Z,7.65
2023-02-28T14:49:33.808Z,8.38
2023-02-28T14:52:14.757Z,7.40
2023-02-28T14:54:44.831Z,9.18
2023-02-28T14:57:35.222Z,9.18
2023-02-28T15:00:35.192Z,8.80
2023-02-28T15:03:36.436Z,6.07
2023-02-28T15:06:19.190Z,9.10
2023-02-28T15:09:12.771Z,9.30
2023-02-28T15:11:50.197Z,8.02
2023-02-28T15:14:29.379Z,8.75
2023-02-28T15:17:05.300Z,8.43
2023-02-28T15:19:40.974Z,7.97
2023-02-28T15:22:20.154Z,8.52
2023-02-28T15:24:54.115Z,8.23
2023-02-28T15:27:33.511Z,8.00
2023-02-28T15:30:09.344Z,8.65
2023-02-28T15:32:43.732Z,9.00
2023-02-28T15:35:33.893Z,8.20
2023-02-28T15:38:20.759Z,6.38
2023-02-28T15:41:00.658Z,8.80
2023-02-28T15:43:35.140Z,8.15
2023-02-28T15:46:16.362Z,7.70
2023-02-28T15:48:56.456Z,9.10
2023-02-28T15:51:35.752Z,8.82
2023-02-28T15:54:16.432Z,8.60
2023-02-28T15:56:54.553Z,8.23
2023-02-28T15:59:30.728Z,8.15
2023-02-28T16:02:23.315Z,8.70
2023-02-28T16:05:14.961Z,8.88
2023-02-28T16:07:46.950Z,8.43
2023-02-28T16:10:16.504Z,8.27
2023-02-28T16:12:45.445Z,8.73
2023-02-28T16:15:31.332Z,8.88
2023-02-28T16:17:59.915Z,8.43
2023-02-28T16:20:34.924Z,8.82
2023-02-28T16:23:03.996Z,9.48
2023-02-28T16:25:45.134Z,8.98
2023-02-28T16:28:32.683Z,8.88
2023-02-28T16:31:06.247Z,11.00
2023-02-28T16:33:36.118Z,9.38
2023-02-28T16:36:07.477Z,9.55
2023-02-28T16:38:35.727Z,9.45
2023-02-28T16:41:06.479Z,8.68
2023-02-28T16:43:36.208Z,8.70
2023-02-28T16:46:06.668Z,8.38
2023-02-28T16:48:34.830Z,8.45
2023-02-28T16:51:05.824Z,6.78
2023-02-28T16:53:35.890Z,8.95
2023-02-28T16:56:05.462Z,9.80
2023-02-28T16:58:36.974Z,8.80
2023-02-28T17:03:35.119Z,8.20
2023-02-28T17:06:30.871Z,8.35
2023-02-28T17:09:03.076Z,8.68
2023-02-28T17:11:34.914Z,8.65
2023-02-28T17:14:04.543Z,8.32
2023-02-28T17:16:38.490Z,8.82
2023-02-28T17:19:12.087Z,8.93
2023-02-28T17:21:43.909Z,8.73
2023-02-28T17:24:28.914Z,10.35
2023-02-28T17:26:59.756Z,10.05
2023-02-28T17:29:28.972Z,10.13
2023-02-28T17:32:00.799Z,10.75
2023-02-28T17:34:31.448Z,9.85
2023-02-28T17:37:03.955Z,10.50
2023-02-28T17:42:01.134Z,10.00
2023-02-28T17:44:30.718Z,9.80
2023-02-28T17:47:01.103Z,9.77
2023-02-28T17:49:29.491Z,9.00
2023-02-28T17:51:59.335Z,8.80
2023-02-28T17:54:28.584Z,9.02
2023-02-28T17:56:57.294Z,9.40
2023-02-28T17:59:25.449Z,8.23
2023-02-28T18:01:56.651Z,8.50
2023-02-28T18:04:28.162Z,8.38
2023-02-28T18:09:28.552Z,8.30
2023-02-28T18:11:57.072Z,8.10
2023-02-28T18:14:26.488Z,8.52
2023-02-28T18:16:57.402Z,6.22
2023-02-28T18:19:25.135Z,8.25
2023-02-28T18:21:57.272Z,8.15
2023-02-28T18:24:25.233Z,9.05
2023-02-28T18:26:53.113Z,9.50
2023-02-28T18:29:25.317Z,10.05
2023-02-28T18:31:59.451Z,9.05
2023-02-28T18:34:33.308Z,8.85
2023-02-28T18:37:04.761Z,8.18
2023-02-28T18:39:32.723Z,9.30
2023-02-28T18:42:00.706Z,9.10
2023-02-28T18:44:28.418Z,8.55
2023-02-28T18:46:56.225Z,8.65
2023-02-28T18:49:23.967Z,8.95
2023-02-28T18:51:52.845Z,8.77
2023-02-28T18:54:20.849Z,8.93
2023-02-28T18:56:50.808Z,8.60
2023-02-28T18:59:21.062Z,9.18
2023-02-28T19:01:51.315Z,9.35
2023-02-28T19:04:19.172Z,12.02
2023-02-28T19:06:46.912Z,12.45
2023-02-28T19:09:14.678Z,12.57
2023-02-28T19:11:42.664Z,12.18
2023-02-28T19:14:10.699Z,11.98
2023-02-28T19:16:39.894Z,11.45
2023-02-28T19:19:07.883Z,11.57
2023-02-28T19:21:36.715Z,11.52
2023-02-28T19:24:05.343Z,12.73
2023-02-28T19:26:33.824Z,11.60
2023-02-28T19:29:06.058Z,13.10
2023-02-28T19:31:33.908Z,14.90
2023-02-28T19:34:04.684Z,17.90
2023-02-28T19:36:33.383Z,15.73
2023-02-28T19:39:01.337Z,14.80
2023-02-28T19:41:29.288Z,13.18
2023-02-28T19:43:57.279Z,11.82
2023-02-28T19:46:25.604Z,11.48
2023-02-28T19:48:56.167Z,10.63
2023-02-28T19:51:24.490Z,10.40
2023-02-28T19:53:52.414Z,11.68
2023-02-28T19:56:20.262Z,10.93
2023-02-28T19:58:48.206Z,11.43
2023-02-28T20:01:19.622Z,12.00
2023-02-28T20:03:51.252Z,12.45
2023-02-28T20:06:19.144Z,14.02
2023-02-28T20:08:48.609Z,17.38
2023-02-28T20:11:17.687Z,18.38
2023-02-28T20:13:48.339Z,20.15
2023-02-28T20:16:16.647Z,22.75
2023-02-28T20:18:47.450Z,19.15
2023-02-28T20:21:16.493Z,19.70
2023-02-28T20:23:48.593Z,28.60
2023-02-28T20:26:20.237Z,23.50
2023-02-28T20:28:48.656Z,20.70
2023-02-28T20:31:25.500Z,15.75
2023-02-28T20:33:53.475Z,13.90
2023-02-28T20:36:23.593Z,12.88
2023-02-28T20:38:53.083Z,12.30
2023-02-28T20:41:21.780Z,12.55
2023-02-28T20:44:00.839Z,12.25
2023-02-28T20:46:31.294Z,11.75
2023-02-28T20:48:59.331Z,11.63
2023-02-28T20:51:27.119Z,10.45
2023-02-28T20:53:54.982Z,10.40
2023-02-28T20:56:25.982Z,9.80
2023-02-28T20:59:13.943Z,11.33
2023-02-28T21:01:44.749Z,10.25
2023-02-28T21:04:12.663Z,10.60
2023-02-28T21:06:43.718Z,10.80
2023-02-28T21:09:14.405Z,9.43
2023-02-28T21:11:42.623Z,10.97
2023-02-28T21:14:16.424Z,11.38
2023-02-28T21:16:48.111Z,11.20
2023-02-28T21:19:16.931Z,10.73
2023-02-28T21:21:46.665Z,11.95
2023-02-28T21:24:19.774Z,9.27
2023-02-28T21:26:48.172Z,12.25
2023-02-28T21:29:16.113Z,13.10
2023-02-28T21:31:44.114Z,13.48
2023-02-28T21:34:13.512Z,13.23
2023-02-28T21:36:47.446Z,12.63
2023-02-28T21:39:19.779Z,12.82
2023-02-28T21:41:48.035Z,12.52
2023-02-28T21:44:19.542Z,11.32
2023-02-28T21:46:52.565Z,12.95
2023-02-28T21:49:20.722Z,12.20
2023-02-28T21:51:48.834Z,13.70
2023-02-28T21:54:16.707Z,14.18
2023-02-28T21:56:44.634Z,14.23
2023-02-28T21:59:13.080Z,13.00
2023-02-28T22:01:46.466Z,11.57
2023-02-28T22:04:22.017Z,10.77
2023-02-28T22:06:53.619Z,11.35
2023-02-28T22:09:21.800Z,10.95
2023-02-28T22:11:50.398Z,12.48
2023-02-28T22:14:18.808Z,12.02
2023-02-28T22:16:51.718Z,11.70
2023-02-28T22:19:22.099Z,11.27
2023-02-28T22:21:50.436Z,11.13
2023-02-28T22:24:20.993Z,10.20
2023-02-28T22:26:55.627Z,9.32
2023-02-28T22:31:51.430Z,9.00
2023-02-28T22:34:20.627Z,8.73
2023-02-28T22:36:54.946Z,8.88
2023-02-28T22:39:22.713Z,7.13
2023-02-28T22:41:51.229Z,8.85
2023-02-28T22:44:19.966Z,8.73
2023-02-28T22:46:53.805Z,9.30
2023-02-28T22:49:22.560Z,9.63
2023-02-28T22:51:57.605Z,9.18
2023-02-28T22:54:25.612Z,9.55
2023-02-28T22:56:53.424Z,9.43
2023-02-28T22:59:22.263Z,9.43
2023-02-28T23:01:54.317Z,9.50
2023-02-28T23:04:32.685Z,9.75
2023-02-28T23:07:01.143Z,10.18
2023-02-28T23:09:28.934Z,11.60
2023-02-28T23:11:56.636Z,11.75
2023-02-28T23:14:24.360Z,11.05
2023-02-28T23:16:54.944Z,10.10
2023-02-28T23:19:29.874Z,7.72
2023-02-28T23:21:59.974Z,9.13
2023-02-28T23:24:31.281Z,8.57
2023-02-28T23:29:29.701Z,8.77
2023-02-28T23:31:58.295Z,8.88
2023-02-28T23:34:30.205Z,8.88
2023-02-28T23:37:02.114Z,8.93
2023-02-28T23:39:31.293Z,8.57
2023-02-28T23:41:59.854Z,8.07
2023-02-28T23:44:28.107Z,8.00
2023-02-28T23:46:55.999Z,8.90
2023-02-28T23:49:23.884Z,8.27
2023-02-28T23:51:54.207Z,8.15
2023-02-28T23:54:22.338Z,9.38
2023-02-28T23:56:50.365Z,9.25
2023-02-28T23:59:18.250Z,9.10
